sensor_id;sensor_type;location;lat;lon;timestamp;P1;durP1;ratioP1;P2;durP2;ratioP2
579;SDS011;276;48.392;9.950;2023-08-12T00:01:04;4.63;;;4.33;;
579;SDS011;276;48.392;9.950;2023-08-12T00:03:32;5.10;;;4.60;;
579;SDS011;276;48.392;9.950;2023-08-12T00:05:58;5.10;;;4.70;;
579;SDS011;276;48.392;9.950;2023-08-12T00:08:26;5.70;;;5.17;;
579;SDS011;276;48.392;9.950;2023-08-12T00:10:52;4.80;;;4.40;;
579;SDS011;276;48.392;9.950;2023-08-12T00:13:20;6.10;;;5.23;;
579;SDS011;276;48.392;9.950;2023-08-12T00:15:46;5.90;;;5.40;;
579;SDS011;276;48.392;9.950;2023-08-12T00:18:11;6.20;;;5.27;;
579;SDS011;276;48.392;9.950;2023-08-12T00:20:37;5.60;;;5.10;;
579;SDS011;276;48.392;9.950;2023-08-12T00:23:03;5.20;;;4.70;;
579;SDS011;276;48.392;9.950;2023-08-12T00:25:29;5.00;;;4.60;;
579;SDS011;276;48.392;9.950;2023-08-12T00:27:55;4.90;;;4.60;;
579;SDS011;276;48.392;9.950;2023-08-12T00:30:20;5.20;;;4.80;;
579;SDS011;276;48.392;9.950;2023-08-12T00:32:46;4.87;;;4.57;;
579;SDS011;276;48.392;9.950;2023-08-12T00:35:14;4.70;;;4.40;;
579;SDS011;276;48.392;9.950;2023-08-12T00:37:44;5.77;;;5.27;;
579;SDS011;276;48.392;9.950;2023-08-12T00:40:10;5.70;;;4.50;;
579;SDS011;276;48.392;9.950;2023-08-12T00:42:36;4.83;;;4.40;;
579;SDS011;276;48.392;9.950;2023-08-12T00:45:01;5.23;;;4.53;;
579;SDS011;276;48.392;9.950;2023-08-12T00:47:29;4.90;;;4.60;;
579;SDS011;276;48.392;9.950;2023-08-12T00:49:57;4.70;;;4.40;;
579;SDS011;276;48.392;9.950;2023-08-12T00:52:24;4.70;;;4.40;;
579;SDS011;276;48.392;9.950;2023-08-12T00:54:50;7.80;;;5.27;;
579;SDS011;276;48.392;9.950;2023-08-12T00:57:18;5.37;;;4.97;;
579;SDS011;276;48.392;9.950;2023-08-12T00:59:48;5.10;;;4.70;;
579;SDS011;276;48.392;9.950;2023-08-12T01:02:14;7.83;;;5.57;;
579;SDS011;276;48.392;9.950;2023-08-12T01:04:42;5.10;;;4.80;;
579;SDS011;276;48.392;9.950;2023-08-12T01:07:08;5.50;;;5.10;;
579;SDS011;276;48.392;9.950;2023-08-12T01:09:33;5.50;;;5.10;;
579;SDS011;276;48.392;9.950;2023-08-12T01:12:02;4.77;;;4.47;;
579;SDS011;276;48.392;9.950;2023-08-12T01:14:33;5.27;;;4.77;;
579;SDS011;276;48.392;9.950;2023-08-12T01:17:11;4.83;;;4.17;;
579;SDS011;276;48.392;9.950;2023-08-12T01:19:41;7.30;;;5.20;;
579;SDS011;276;48.392;9.950;2023-08-12T01:22:11;4.57;;;4.27;;
579;SDS011;276;48.392;9.950;2023-08-12T01:24:38;5.10;;;4.70;;
579;SDS011;276;48.392;9.950;2023-08-12T01:27:06;7.00;;;4.40;;
579;SDS011;276;48.392;9.950;2023-08-12T01:29:33;4.80;;;4.40;;
579;SDS011;276;48.392;9.950;2023-08-12T01:35:17;5.57;;;5.17;;
579;SDS011;276;48.392;9.950;2023-08-12T01:37:48;4.93;;;4.60;;
579;SDS011;276;48.392;9.950;2023-08-12T01:40:18;5.30;;;4.80;;
579;SDS011;276;48.392;9.950;2023-08-12T01:42:45;4.90;;;4.50;;
579;SDS011;276;48.392;9.950;2023-08-12T01:45:11;5.33;;;4.93;;
579;SDS011;276;48.392;9.950;2023-08-12T01:47:37;4.50;;;4.20;;
579;SDS011;276;48.392;9.950;2023-08-12T01:50:03;4.87;;;4.47;;
579;SDS011;276;48.392;9.950;2023-08-12T01:52:29;4.83;;;4.53;;
579;SDS011;276;48.392;9.950;2023-08-12T01:54:55;5.13;;;4.70;;
579;SDS011;276;48.392;9.950;2023-08-12T01:57:20;8.43;;;4.33;;
579;SDS011;276;48.392;9.950;2023-08-12T01:59:46;5.83;;;5.43;;
579;SDS011;276;48.392;9.950;2023-08-12T02:02:12;4.97;;;4.67;;
579;SDS011;276;48.392;9.950;2023-08-12T02:04:41;4.30;;;4.00;;
579;SDS011;276;48.392;9.950;2023-08-12T02:07:09;5.03;;;4.63;;
579;SDS011;276;48.392;9.950;2023-08-12T02:09:35;4.80;;;4.50;;
579;SDS011;276;48.392;9.950;2023-08-12T02:12:00;6.33;;;5.43;;
579;SDS011;276;48.392;9.950;2023-08-12T02:14:26;4.33;;;4.03;;
579;SDS011;276;48.392;9.950;2023-08-12T02:16:51;5.80;;;5.30;;
579;SDS011;276;48.392;9.950;2023-08-12T02:19:17;4.40;;;4.10;;
579;SDS011;276;48.392;9.950;2023-08-12T02:21:43;6.07;;;5.50;;
579;SDS011;276;48.392;9.950;2023-08-12T02:24:10;4.93;;;4.53;;
579;SDS011;276;48.392;9.950;2023-08-12T02:26:38;4.90;;;4.50;;
579;SDS011;276;48.392;9.950;2023-08-12T02:29:06;6.13;;;5.53;;
579;SDS011;276;48.392;9.950;2023-08-12T02:31:32;5.37;;;4.87;;
579;SDS011;276;48.392;9.950;2023-08-12T02:34:00;5.30;;;5.00;;
579;SDS011;276;48.392;9.950;2023-08-12T02:36:30;4.50;;;4.20;;
579;SDS011;276;48.392;9.950;2023-08-12T02:38:56;5.53;;;5.03;;
579;SDS011;276;48.392;9.950;2023-08-12T02:41:21;5.80;;;5.40;;
579;SDS011;276;48.392;9.950;2023-08-12T02:43:50;6.00;;;5.50;;
579;SDS011;276;48.392;9.950;2023-08-12T02:46:20;4.70;;;4.40;;
579;SDS011;276;48.392;9.950;2023-08-12T02:48:50;5.93;;;5.40;;
579;SDS011;276;48.392;9.950;2023-08-12T02:51:16;5.97;;;5.50;;
579;SDS011;276;48.392;9.950;2023-08-12T02:53:44;6.03;;;5.43;;
579;SDS011;276;48.392;9.950;2023-08-12T02:56:11;6.40;;;5.80;;
579;SDS011;276;48.392;9.950;2023-08-12T02:58:37;5.23;;;4.83;;
579;SDS011;276;48.392;9.950;2023-08-12T03:01:03;5.43;;;5.03;;
579;SDS011;276;48.392;9.950;2023-08-12T03:03:29;6.07;;;5.47;;
579;SDS011;276;48.392;9.950;2023-08-12T03:05:54;5.57;;;5.10;;
579;SDS011;276;48.392;9.950;2023-08-12T03:08:20;4.23;;;3.93;;
579;SDS011;276;48.392;9.950;2023-08-12T03:10:48;6.20;;;5.80;;
579;SDS011;276;48.392;9.950;2023-08-12T03:13:16;5.63;;;5.13;;
579;SDS011;276;48.392;9.950;2023-08-12T03:15:42;5.53;;;4.83;;
579;SDS011;276;48.392;9.950;2023-08-12T03:18:08;6.10;;;5.20;;
579;SDS011;276;48.392;9.950;2023-08-12T03:20:36;4.70;;;4.30;;
579;SDS011;276;48.392;9.950;2023-08-12T03:23:04;5.40;;;5.03;;
579;SDS011;276;48.392;9.950;2023-08-12T03:25:32;5.93;;;5.53;;
579;SDS011;276;48.392;9.950;2023-08-12T03:27:58;4.93;;;4.53;;
579;SDS011;276;48.392;9.950;2023-08-12T03:30:26;5.20;;;4.80;;
579;SDS011;276;48.392;9.950;2023-08-12T03:32:52;5.77;;;5.27;;
579;SDS011;276;48.392;9.950;2023-08-12T03:35:18;5.10;;;4.73;;
579;SDS011;276;48.392;9.950;2023-08-12T03:37:44;6.10;;;5.50;;
579;SDS011;276;48.392;9.950;2023-08-12T03:40:09;7.10;;;5.40;;
579;SDS011;276;48.392;9.950;2023-08-12T03:42:36;5.83;;;4.67;;
579;SDS011;276;48.392;9.950;2023-08-12T03:45:03;5.53;;;5.13;;
579;SDS011;276;48.392;9.950;2023-08-12T03:47:34;5.87;;;5.40;;
579;SDS011;276;48.392;9.950;2023-08-12T03:50:00;5.20;;;4.80;;
579;SDS011;276;48.392;9.950;2023-08-12T03:52:28;5.90;;;5.57;;
579;SDS011;276;48.392;9.950;2023-08-12T03:54:53;5.50;;;5.03;;
579;SDS011;276;48.392;9.950;2023-08-12T03:57:19;5.33;;;4.93;;
579;SDS011;276;48.392;9.950;2023-08-12T03:59:44;5.20;;;4.60;;
579;SDS011;276;48.392;9.950;2023-08-12T04:02:10;5.80;;;5.30;;
579;SDS011;276;48.392;9.950;2023-08-12T04:04:36;5.73;;;5.10;;
579;SDS011;276;48.392;9.950;2023-08-12T04:07:04;5.73;;;5.23;;
579;SDS011;276;48.392;9.950;2023-08-12T04:09:29;5.70;;;5.20;;
579;SDS011;276;48.392;9.950;2023-08-12T04:11:55;7.50;;;6.80;;
579;SDS011;276;48.392;9.950;2023-08-12T04:14:23;5.30;;;4.80;;
579;SDS011;276;48.392;9.950;2023-08-12T04:16:50;5.13;;;4.80;;
579;SDS011;276;48.392;9.950;2023-08-12T04:19:16;5.33;;;4.93;;
579;SDS011;276;48.392;9.950;2023-08-12T04:21:41;5.77;;;5.27;;
579;SDS011;276;48.392;9.950;2023-08-12T04:24:11;5.63;;;5.23;;
579;SDS011;276;48.392;9.950;2023-08-12T04:26:36;7.13;;;5.17;;
579;SDS011;276;48.392;9.950;2023-08-12T04:29:02;4.90;;;4.57;;
579;SDS011;276;48.392;9.950;2023-08-12T04:31:28;6.57;;;5.97;;
579;SDS011;276;48.392;9.950;2023-08-12T04:33:53;5.17;;;4.87;;
579;SDS011;276;48.392;9.950;2023-08-12T04:36:19;6.27;;;5.70;;
579;SDS011;276;48.392;9.950;2023-08-12T04:38:44;6.40;;;6.00;;
579;SDS011;276;48.392;9.950;2023-08-12T04:41:12;6.30;;;5.80;;
579;SDS011;276;48.392;9.950;2023-08-12T04:43:41;5.63;;;5.20;;
579;SDS011;276;48.392;9.950;2023-08-12T04:46:09;4.97;;;4.67;;
579;SDS011;276;48.392;9.950;2023-08-12T04:48:37;6.20;;;5.80;;
579;SDS011;276;48.392;9.950;2023-08-12T04:51:05;5.37;;;4.97;;
579;SDS011;276;48.392;9.950;2023-08-12T04:53:31;5.60;;;5.20;;
579;SDS011;276;48.392;9.950;2023-08-12T04:56:00;5.90;;;5.40;;
579;SDS011;276;48.392;9.950;2023-08-12T04:58:25;6.37;;;5.67;;
579;SDS011;276;48.392;9.950;2023-08-12T05:00:51;6.20;;;5.43;;
579;SDS011;276;48.392;9.950;2023-08-12T05:03:19;5.80;;;5.30;;
579;SDS011;276;48.392;9.950;2023-08-12T05:05:48;6.07;;;5.50;;
579;SDS011;276;48.392;9.950;2023-08-12T05:08:17;5.43;;;5.03;;
579;SDS011;276;48.392;9.950;2023-08-12T05:10:48;8.23;;;5.97;;
579;SDS011;276;48.392;9.950;2023-08-12T05:13:14;6.93;;;5.43;;
579;SDS011;276;48.392;9.950;2023-08-12T05:15:40;5.90;;;5.30;;
579;SDS011;276;48.392;9.950;2023-08-12T05:18:06;5.47;;;4.93;;
579;SDS011;276;48.392;9.950;2023-08-12T05:20:34;6.50;;;5.17;;
579;SDS011;276;48.392;9.950;2023-08-12T05:22:59;6.10;;;5.60;;
579;SDS011;276;48.392;9.950;2023-08-12T05:25:25;5.67;;;5.27;;
579;SDS011;276;48.392;9.950;2023-08-12T05:27:50;6.60;;;6.00;;
579;SDS011;276;48.392;9.950;2023-08-12T05:30:16;6.03;;;5.53;;
579;SDS011;276;48.392;9.950;2023-08-12T05:32:46;5.50;;;5.10;;
579;SDS011;276;48.392;9.950;2023-08-12T05:35:11;5.47;;;5.03;;
579;SDS011;276;48.392;9.950;2023-08-12T05:37:39;5.67;;;5.17;;
579;SDS011;276;48.392;9.950;2023-08-12T05:40:08;6.63;;;6.03;;
579;SDS011;276;48.392;9.950;2023-08-12T05:42:34;5.20;;;4.80;;
579;SDS011;276;48.392;9.950;2023-08-12T05:45:01;7.20;;;5.80;;
579;SDS011;276;48.392;9.950;2023-08-12T05:47:26;5.43;;;5.03;;
579;SDS011;276;48.392;9.950;2023-08-12T05:49:52;4.73;;;4.43;;
579;SDS011;276;48.392;9.950;2023-08-12T05:52:18;7.00;;;5.50;;
579;SDS011;276;48.392;9.950;2023-08-12T05:54:48;5.80;;;5.30;;
579;SDS011;276;48.392;9.950;2023-08-12T05:57:14;5.50;;;5.10;;
579;SDS011;276;48.392;9.950;2023-08-12T05:59:39;5.43;;;4.90;;
579;SDS011;276;48.392;9.950;2023-08-12T06:02:08;8.50;;;6.10;;
579;SDS011;276;48.392;9.950;2023-08-12T06:04:34;9.40;;;4.80;;
579;SDS011;276;48.392;9.950;2023-08-12T06:07:02;4.67;;;4.27;;
579;SDS011;276;48.392;9.950;2023-08-12T06:09:28;6.20;;;5.10;;
579;SDS011;276;48.392;9.950;2023-08-12T06:11:56;6.60;;;6.10;;
579;SDS011;276;48.392;9.950;2023-08-12T06:14:21;5.60;;;5.20;;
579;SDS011;276;48.392;9.950;2023-08-12T06:16:49;5.73;;;5.30;;
579;SDS011;276;48.392;9.950;2023-08-12T06:19:15;6.13;;;5.63;;
579;SDS011;276;48.392;9.950;2023-08-12T06:21:40;7.80;;;7.10;;
579;SDS011;276;48.392;9.950;2023-08-12T06:24:06;9.90;;;9.13;;
579;SDS011;276;48.392;9.950;2023-08-12T06:26:32;11.53;;;10.57;;
579;SDS011;276;48.392;9.950;2023-08-12T06:28:57;10.13;;;9.33;;
579;SDS011;276;48.392;9.950;2023-08-12T06:31:25;9.30;;;8.60;;
579;SDS011;276;48.392;9.950;2023-08-12T06:33:51;9.93;;;9.03;;
579;SDS011;276;48.392;9.950;2023-08-12T06:36:16;8.57;;;7.70;;
579;SDS011;276;48.392;9.950;2023-08-12T06:38:44;7.57;;;6.97;;
579;SDS011;276;48.392;9.950;2023-08-12T06:41:10;7.43;;;6.63;;
579;SDS011;276;48.392;9.950;2023-08-12T06:43:35;7.40;;;6.80;;
579;SDS011;276;48.392;9.950;2023-08-12T06:46:01;6.10;;;5.70;;
579;SDS011;276;48.392;9.950;2023-08-12T06:48:27;6.07;;;5.63;;
579;SDS011;276;48.392;9.950;2023-08-12T06:50:54;6.20;;;5.70;;
579;SDS011;276;48.392;9.950;2023-08-12T06:53:24;6.50;;;5.90;;
579;SDS011;276;48.392;9.950;2023-08-12T06:55:51;6.93;;;6.07;;
579;SDS011;276;48.392;9.950;2023-08-12T06:58:19;7.37;;;6.77;;
579;SDS011;276;48.392;9.950;2023-08-12T07:00:50;6.73;;;6.13;;
579;SDS011;276;48.392;9.950;2023-08-12T07:03:18;7.33;;;6.77;;
579;SDS011;276;48.392;9.950;2023-08-12T07:05:44;5.80;;;5.40;;
579;SDS011;276;48.392;9.950;2023-08-12T07:08:14;6.10;;;5.60;;
579;SDS011;276;48.392;9.950;2023-08-12T07:10:40;5.90;;;5.40;;
579;SDS011;276;48.392;9.950;2023-08-12T07:13:06;5.97;;;5.47;;
579;SDS011;276;48.392;9.950;2023-08-12T07:15:31;7.10;;;6.40;;
579;SDS011;276;48.392;9.950;2023-08-12T07:17:59;6.27;;;5.87;;
579;SDS011;276;48.392;9.950;2023-08-12T07:20:27;5.70;;;5.30;;
579;SDS011;276;48.392;9.950;2023-08-12T07:22:53;6.03;;;5.53;;
579;SDS011;276;48.392;9.950;2023-08-12T07:25:21;7.27;;;6.67;;
579;SDS011;276;48.392;9.950;2023-08-12T07:27:46;7.37;;;6.67;;
579;SDS011;276;48.392;9.950;2023-08-12T07:30:13;6.47;;;5.97;;
579;SDS011;276;48.392;9.950;2023-08-12T07:32:38;6.97;;;6.20;;
579;SDS011;276;48.392;9.950;2023-08-12T07:35:04;7.43;;;6.70;;
579;SDS011;276;48.392;9.950;2023-08-12T07:37:33;7.70;;;6.83;;
579;SDS011;276;48.392;9.950;2023-08-12T07:40:04;7.73;;;7.20;;
579;SDS011;276;48.392;9.950;2023-08-12T07:42:29;7.67;;;6.97;;
579;SDS011;276;48.392;9.950;2023-08-12T07:44:57;7.17;;;6.67;;
579;SDS011;276;48.392;9.950;2023-08-12T07:47:23;10.00;;;9.30;;
579;SDS011;276;48.392;9.950;2023-08-12T07:49:49;11.70;;;7.90;;
579;SDS011;276;48.392;9.950;2023-08-12T07:52:14;9.30;;;8.50;;
579;SDS011;276;48.392;9.950;2023-08-12T07:54:44;13.20;;;9.80;;
579;SDS011;276;48.392;9.950;2023-08-12T07:57:10;10.70;;;9.80;;
579;SDS011;276;48.392;9.950;2023-08-12T07:59:36;9.57;;;8.80;;
579;SDS011;276;48.392;9.950;2023-08-12T08:02:01;11.67;;;10.67;;
579;SDS011;276;48.392;9.950;2023-08-12T08:04:28;10.07;;;9.27;;
579;SDS011;276;48.392;9.950;2023-08-12T08:06:53;11.43;;;10.43;;
579;SDS011;276;48.392;9.950;2023-08-12T08:09:19;11.07;;;10.27;;
579;SDS011;276;48.392;9.950;2023-08-12T08:11:47;9.33;;;8.40;;
579;SDS011;276;48.392;9.950;2023-08-12T08:14:13;9.37;;;8.37;;
579;SDS011;276;48.392;9.950;2023-08-12T08:16:38;9.30;;;8.50;;
579;SDS011;276;48.392;9.950;2023-08-12T08:19:06;8.03;;;7.43;;
579;SDS011;276;48.392;9.950;2023-08-12T08:21:33;9.63;;;8.67;;
579;SDS011;276;48.392;9.950;2023-08-12T08:24:01;7.77;;;7.10;;
579;SDS011;276;48.392;9.950;2023-08-12T08:26:29;9.87;;;9.07;;
579;SDS011;276;48.392;9.950;2023-08-12T08:28:54;8.63;;;8.03;;
579;SDS011;276;48.392;9.950;2023-08-12T08:31:20;10.20;;;9.30;;
579;SDS011;276;48.392;9.950;2023-08-12T08:33:45;11.43;;;10.53;;
579;SDS011;276;48.392;9.950;2023-08-12T08:36:13;9.87;;;8.97;;
579;SDS011;276;48.392;9.950;2023-08-12T08:38:39;11.00;;;10.00;;
579;SDS011;276;48.392;9.950;2023-08-12T08:41:05;9.77;;;9.07;;
579;SDS011;276;48.392;9.950;2023-08-12T08:43:36;8.60;;;7.80;;
579;SDS011;276;48.392;9.950;2023-08-12T08:46:03;9.33;;;8.53;;
579;SDS011;276;48.392;9.950;2023-08-12T08:48:31;11.00;;;10.10;;
579;SDS011;276;48.392;9.950;2023-08-12T08:51:02;11.07;;;10.27;;
579;SDS011;276;48.392;9.950;2023-08-12T08:53:30;11.00;;;10.20;;
579;SDS011;276;48.392;9.950;2023-08-12T08:55:55;9.20;;;8.40;;
579;SDS011;276;48.392;9.950;2023-08-12T08:58:25;9.33;;;8.63;;
579;SDS011;276;48.392;9.950;2023-08-12T09:00:50;11.00;;;8.90;;
579;SDS011;276;48.392;9.950;2023-08-12T09:03:16;9.10;;;8.40;;
579;SDS011;276;48.392;9.950;2023-08-12T09:05:44;8.03;;;7.27;;
579;SDS011;276;48.392;9.950;2023-08-12T09:08:11;8.67;;;8.07;;
579;SDS011;276;48.392;9.950;2023-08-12T09:10:38;9.10;;;8.33;;
579;SDS011;276;48.392;9.950;2023-08-12T09:13:07;6.60;;;6.20;;
579;SDS011;276;48.392;9.950;2023-08-12T09:15:37;8.07;;;7.47;;
579;SDS011;276;48.392;9.950;2023-08-12T09:18:05;8.23;;;7.67;;
579;SDS011;276;48.392;9.950;2023-08-12T09:20:32;6.50;;;5.90;;
579;SDS011;276;48.392;9.950;2023-08-12T09:23:06;6.40;;;5.83;;
579;SDS011;276;48.392;9.950;2023-08-12T09:25:42;6.70;;;6.10;;
579;SDS011;276;48.392;9.950;2023-08-12T09:28:11;5.37;;;4.97;;
579;SDS011;276;48.392;9.950;2023-08-12T09:30:39;5.97;;;5.50;;
579;SDS011;276;48.392;9.950;2023-08-12T09:33:08;6.53;;;6.03;;
579;SDS011;276;48.392;9.950;2023-08-12T09:38:02;8.47;;;5.90;;
579;SDS011;276;48.392;9.950;2023-08-12T09:40:40;7.93;;;7.33;;
579;SDS011;276;48.392;9.950;2023-08-12T09:43:11;6.80;;;6.20;;
579;SDS011;276;48.392;9.950;2023-08-12T09:45:36;6.70;;;6.10;;
579;SDS011;276;48.392;9.950;2023-08-12T09:48:05;6.90;;;6.30;;
579;SDS011;276;48.392;9.950;2023-08-12T09:50:33;6.90;;;6.40;;
579;SDS011;276;48.392;9.950;2023-08-12T09:53:01;6.80;;;6.30;;
579;SDS011;276;48.392;9.950;2023-08-12T09:55:30;7.43;;;6.67;;
579;SDS011;276;48.392;9.950;2023-08-12T09:57:58;6.60;;;6.20;;
579;SDS011;276;48.392;9.950;2023-08-12T10:00:25;6.33;;;5.90;;
579;SDS011;276;48.392;9.950;2023-08-12T10:02:51;5.77;;;5.37;;
579;SDS011;276;48.392;9.950;2023-08-12T10:05:31;6.23;;;5.83;;
579;SDS011;276;48.392;9.950;2023-08-12T10:07:57;6.60;;;6.20;;
579;SDS011;276;48.392;9.950;2023-08-12T10:10:25;6.30;;;5.70;;
579;SDS011;276;48.392;9.950;2023-08-12T10:12:51;7.10;;;6.50;;
579;SDS011;276;48.392;9.950;2023-08-12T10:15:17;6.80;;;5.67;;
579;SDS011;276;48.392;9.950;2023-08-12T10:17:43;6.57;;;6.13;;
579;SDS011;276;48.392;9.950;2023-08-12T10:20:18;7.07;;;4.93;;
579;SDS011;276;48.392;9.950;2023-08-12T10:22:50;6.53;;;6.00;;
579;SDS011;276;48.392;9.950;2023-08-12T10:25:17;5.10;;;4.70;;
579;SDS011;276;48.392;9.950;2023-08-12T10:27:49;8.27;;;5.13;;
579;SDS011;276;48.392;9.950;2023-08-12T10:30:15;4.57;;;4.17;;
579;SDS011;276;48.392;9.950;2023-08-12T10:32:41;4.67;;;4.27;;
579;SDS011;276;48.392;9.950;2023-08-12T10:35:07;5.23;;;4.83;;
579;SDS011;276;48.392;9.950;2023-08-12T10:37:35;4.73;;;4.37;;
579;SDS011;276;48.392;9.950;2023-08-12T10:40:09;5.13;;;4.73;;
579;SDS011;276;48.392;9.950;2023-08-12T10:42:47;5.00;;;4.60;;
579;SDS011;276;48.392;9.950;2023-08-12T10:45:15;4.30;;;4.00;;
579;SDS011;276;48.392;9.950;2023-08-12T10:48:09;4.97;;;4.47;;
579;SDS011;276;48.392;9.950;2023-08-12T10:50:34;4.47;;;4.17;;
579;SDS011;276;48.392;9.950;2023-08-12T10:53:20;5.43;;;4.37;;
579;SDS011;276;48.392;9.950;2023-08-12T10:55:49;4.53;;;3.97;;
579;SDS011;276;48.392;9.950;2023-08-12T10:58:37;5.00;;;4.47;;
579;SDS011;276;48.392;9.950;2023-08-12T11:01:11;5.00;;;4.50;;
579;SDS011;276;48.392;9.950;2023-08-12T11:03:43;4.53;;;4.23;;
579;SDS011;276;48.392;9.950;2023-08-12T11:06:12;5.03;;;4.10;;
579;SDS011;276;48.392;9.950;2023-08-12T11:08:46;4.03;;;3.73;;
579;SDS011;276;48.392;9.950;2023-08-12T11:11:22;6.97;;;4.90;;
579;SDS011;276;48.392;9.950;2023-08-12T11:13:57;4.37;;;4.07;;
579;SDS011;276;48.392;9.950;2023-08-12T11:16:34;4.10;;;3.80;;
579;SDS011;276;48.392;9.950;2023-08-12T11:19:00;5.00;;;4.60;;
579;SDS011;276;48.392;9.950;2023-08-12T11:21:27;4.20;;;3.90;;
579;SDS011;276;48.392;9.950;2023-08-12T11:23:54;5.23;;;4.73;;
579;SDS011;276;48.392;9.950;2023-08-12T11:26:20;4.87;;;4.47;;
579;SDS011;276;48.392;9.950;2023-08-12T11:28:53;5.20;;;4.80;;
579;SDS011;276;48.392;9.950;2023-08-12T11:31:18;4.03;;;3.70;;
579;SDS011;276;48.392;9.950;2023-08-12T11:33:44;4.83;;;4.43;;
579;SDS011;276;48.392;9.950;2023-08-12T11:36:10;4.70;;;4.30;;
579;SDS011;276;48.392;9.950;2023-08-12T11:38:37;5.00;;;4.60;;
579;SDS011;276;48.392;9.950;2023-08-12T11:41:07;4.90;;;4.50;;
579;SDS011;276;48.392;9.950;2023-08-12T11:43:33;4.43;;;4.10;;
579;SDS011;276;48.392;9.950;2023-08-12T11:45:59;4.53;;;4.23;;
579;SDS011;276;48.392;9.950;2023-08-12T11:48:27;5.20;;;4.70;;
579;SDS011;276;48.392;9.950;2023-08-12T11:50:52;5.70;;;4.87;;
579;SDS011;276;48.392;9.950;2023-08-12T11:53:21;5.50;;;5.10;;
579;SDS011;276;48.392;9.950;2023-08-12T11:55:46;5.33;;;4.70;;
579;SDS011;276;48.392;9.950;2023-08-12T11:58:14;4.17;;;3.87;;
579;SDS011;276;48.392;9.950;2023-08-12T12:00:48;5.73;;;4.57;;
579;SDS011;276;48.392;9.950;2023-08-12T12:03:17;4.60;;;4.20;;
579;SDS011;276;48.392;9.950;2023-08-12T12:05:47;8.30;;;5.03;;
579;SDS011;276;48.392;9.950;2023-08-12T12:08:15;5.03;;;4.37;;
579;SDS011;276;48.392;9.950;2023-08-12T12:10:46;4.80;;;4.40;;
579;SDS011;276;48.392;9.950;2023-08-12T12:13:12;4.67;;;4.30;;
579;SDS011;276;48.392;9.950;2023-08-12T12:15:42;5.10;;;4.73;;
579;SDS011;276;48.392;9.950;2023-08-12T12:18:11;3.90;;;3.70;;
579;SDS011;276;48.392;9.950;2023-08-12T12:23:21;4.83;;;4.37;;
579;SDS011;276;48.392;9.950;2023-08-12T12:25:49;4.07;;;3.67;;
579;SDS011;276;48.392;9.950;2023-08-12T12:28:25;4.07;;;3.83;;
579;SDS011;276;48.392;9.950;2023-08-12T12:30:55;4.57;;;4.20;;
579;SDS011;276;48.392;9.950;2023-08-12T12:33:22;5.07;;;3.97;;
579;SDS011;276;48.392;9.950;2023-08-12T12:35:47;3.90;;;3.60;;
579;SDS011;276;48.392;9.950;2023-08-12T12:38:17;5.20;;;4.00;;
579;SDS011;276;48.392;9.950;2023-08-12T12:40:43;5.27;;;4.83;;
579;SDS011;276;48.392;9.950;2023-08-12T12:43:09;4.50;;;4.10;;
579;SDS011;276;48.392;9.950;2023-08-12T12:45:38;6.00;;;4.10;;
579;SDS011;276;48.392;9.950;2023-08-12T12:48:04;4.93;;;4.40;;
579;SDS011;276;48.392;9.950;2023-08-12T12:50:31;4.77;;;4.27;;
579;SDS011;276;48.392;9.950;2023-08-12T12:52:56;4.77;;;4.40;;
579;SDS011;276;48.392;9.950;2023-08-12T12:55:22;5.20;;;4.83;;
579;SDS011;276;48.392;9.950;2023-08-12T12:57:50;6.43;;;5.90;;
579;SDS011;276;48.392;9.950;2023-08-12T13:00:16;4.77;;;4.47;;
579;SDS011;276;48.392;9.950;2023-08-12T13:02:41;6.30;;;5.47;;
579;SDS011;276;48.392;9.950;2023-08-12T13:05:07;5.90;;;4.90;;
579;SDS011;276;48.392;9.950;2023-08-12T13:07:35;4.67;;;4.37;;
579;SDS011;276;48.392;9.950;2023-08-12T13:10:03;4.17;;;3.97;;
579;SDS011;276;48.392;9.950;2023-08-12T13:12:29;4.17;;;3.87;;
579;SDS011;276;48.392;9.950;2023-08-12T13:14:57;7.43;;;3.50;;
579;SDS011;276;48.392;9.950;2023-08-12T13:17:22;4.27;;;3.87;;
579;SDS011;276;48.392;9.950;2023-08-12T13:19:50;4.60;;;4.20;;
579;SDS011;276;48.392;9.950;2023-08-12T13:22:18;3.50;;;3.30;;
579;SDS011;276;48.392;9.950;2023-08-12T13:24:44;4.80;;;3.83;;
579;SDS011;276;48.392;9.950;2023-08-12T13:27:12;4.53;;;4.03;;
579;SDS011;276;48.392;9.950;2023-08-12T13:29:38;3.43;;;3.23;;
579;SDS011;276;48.392;9.950;2023-08-12T13:32:04;3.73;;;3.43;;
579;SDS011;276;48.392;9.950;2023-08-12T13:34:29;4.23;;;3.60;;
579;SDS011;276;48.392;9.950;2023-08-12T13:36:55;4.37;;;2.93;;
579;SDS011;276;48.392;9.950;2023-08-12T13:39:20;3.27;;;3.07;;
579;SDS011;276;48.392;9.950;2023-08-12T13:41:48;4.50;;;4.20;;
579;SDS011;276;48.392;9.950;2023-08-12T13:44:14;3.67;;;3.37;;
579;SDS011;276;48.392;9.950;2023-08-12T13:46:39;3.50;;;3.30;;
579;SDS011;276;48.392;9.950;2023-08-12T13:49:07;3.80;;;3.50;;
579;SDS011;276;48.392;9.950;2023-08-12T13:51:33;4.80;;;4.40;;
579;SDS011;276;48.392;9.950;2023-08-12T13:53:58;4.73;;;4.43;;
579;SDS011;276;48.392;9.950;2023-08-12T13:56:24;4.53;;;4.10;;
579;SDS011;276;48.392;9.950;2023-08-12T13:58:50;4.30;;;4.00;;
579;SDS011;276;48.392;9.950;2023-08-12T14:01:18;4.63;;;3.97;;
579;SDS011;276;48.392;9.950;2023-08-12T14:03:43;5.83;;;4.10;;
579;SDS011;276;48.392;9.950;2023-08-12T14:06:09;4.60;;;4.20;;
579;SDS011;276;48.392;9.950;2023-08-12T14:08:34;4.20;;;3.90;;
579;SDS011;276;48.392;9.950;2023-08-12T14:11:00;3.63;;;3.33;;
579;SDS011;276;48.392;9.950;2023-08-12T14:13:26;4.70;;;4.30;;
579;SDS011;276;48.392;9.950;2023-08-12T14:15:54;3.70;;;3.50;;
579;SDS011;276;48.392;9.950;2023-08-12T14:18:19;5.07;;;4.57;;
579;SDS011;276;48.392;9.950;2023-08-12T14:20:47;4.47;;;4.17;;
579;SDS011;276;48.392;9.950;2023-08-12T14:23:15;4.17;;;3.80;;
579;SDS011;276;48.392;9.950;2023-08-12T14:25:43;4.40;;;4.10;;
579;SDS011;276;48.392;9.950;2023-08-12T14:28:11;3.83;;;3.53;;
579;SDS011;276;48.392;9.950;2023-08-12T14:30:37;3.53;;;3.23;;
579;SDS011;276;48.392;9.950;2023-08-12T14:33:02;2.90;;;2.70;;
579;SDS011;276;48.392;9.950;2023-08-12T14:35:28;3.57;;;3.37;;
579;SDS011;276;48.392;9.950;2023-08-12T14:37:54;3.53;;;3.30;;
579;SDS011;276;48.392;9.950;2023-08-12T14:40:20;3.87;;;3.63;;
579;SDS011;276;48.392;9.950;2023-08-12T14:42:48;3.43;;;3.23;;
579;SDS011;276;48.392;9.950;2023-08-12T14:45:16;3.70;;;3.50;;
579;SDS011;276;48.392;9.950;2023-08-12T14:47:41;3.47;;;3.27;;
579;SDS011;276;48.392;9.950;2023-08-12T14:50:07;5.00;;;4.00;;
579;SDS011;276;48.392;9.950;2023-08-12T14:52:33;3.73;;;3.43;;
579;SDS011;276;48.392;9.950;2023-08-12T14:54:59;3.83;;;3.60;;
579;SDS011;276;48.392;9.950;2023-08-12T14:57:25;3.00;;;2.83;;
579;SDS011;276;48.392;9.950;2023-08-12T14:59:50;3.80;;;3.50;;
579;SDS011;276;48.392;9.950;2023-08-12T15:02:25;3.47;;;3.20;;
579;SDS011;276;48.392;9.950;2023-08-12T15:04:50;3.60;;;3.30;;
579;SDS011;276;48.392;9.950;2023-08-12T15:07:19;2.57;;;2.40;;
579;SDS011;276;48.392;9.950;2023-08-12T15:09:48;2.37;;;2.17;;
579;SDS011;276;48.392;9.950;2023-08-12T15:12:16;2.63;;;2.00;;
579;SDS011;276;48.392;9.950;2023-08-12T15:14:46;2.73;;;2.53;;
579;SDS011;276;48.392;9.950;2023-08-12T15:17:12;3.00;;;2.80;;
579;SDS011;276;48.392;9.950;2023-08-12T15:19:37;2.80;;;2.60;;
579;SDS011;276;48.392;9.950;2023-08-12T15:22:03;2.67;;;2.47;;
579;SDS011;276;48.392;9.950;2023-08-12T15:24:32;2.67;;;2.47;;
579;SDS011;276;48.392;9.950;2023-08-12T15:26:57;2.87;;;2.67;;
579;SDS011;276;48.392;9.950;2023-08-12T15:29:25;4.07;;;2.70;;
579;SDS011;276;48.392;9.950;2023-08-12T15:31:51;5.00;;;2.90;;
579;SDS011;276;48.392;9.950;2023-08-12T15:34:16;3.90;;;2.97;;
579;SDS011;276;48.392;9.950;2023-08-12T15:36:42;3.60;;;3.30;;
579;SDS011;276;48.392;9.950;2023-08-12T15:39:08;3.90;;;3.60;;
579;SDS011;276;48.392;9.950;2023-08-12T15:41:34;3.67;;;3.47;;
579;SDS011;276;48.392;9.950;2023-08-12T15:44:09;4.63;;;4.30;;
579;SDS011;276;48.392;9.950;2023-08-12T15:46:35;3.97;;;3.63;;
579;SDS011;276;48.392;9.950;2023-08-12T15:49:02;3.50;;;3.20;;
579;SDS011;276;48.392;9.950;2023-08-12T15:51:32;4.10;;;3.80;;
579;SDS011;276;48.392;9.950;2023-08-12T15:54:01;3.77;;;3.10;;